Time;durP1;ratioP1;P1;durP2;ratioP2;P2;SDS_P1;SDS_P2;PMS_P1;PMS_P2;Temp;Humidity;BMP_temperature;BMP_pressure;BME280_temperature;BME280_humidity;BME280_pressure;Samples;Min_cycle;Max_cycle;Signal;HPM_P1;HPM_P2
2021/10/17 00:02:04;;;;;;;19.90;13.63;;;7.90;99.90;;;;;;5073375;28;20472;-53
2021/10/17 00:04:31;;;;;;;23.57;15.20;;;7.80;99.90;;;;;;5073869;28;20517;-52
2021/10/17 00:06:58;;;;;;;20.60;14.67;;;7.70;99.90;;;;;;5062175;28;20490;-53
2021/10/17 00:09:25;;;;;;;22.80;14.77;;;7.70;99.90;;;;;;5066536;28;20442;-54
2021/10/17 00:11:56;;;;;;;29.97;17.50;;;7.70;99.90;;;;;;5064223;28;20489;-54
2021/10/17 00:14:23;;;;;;;26.37;15.90;;;7.60;99.90;;;;;;5072547;28;20465;-53
2021/10/17 00:16:50;;;;;;;21.93;14.43;;;7.60;99.90;;;;;;5073694;28;20466;-53
2021/10/17 00:19:18;;;;;;;24.97;15.20;;;7.70;99.90;;;;;;5073464;28;20446;-54
2021/10/17 00:21:45;;;;;;;22.00;13.60;;;7.80;99.90;;;;;;5073042;28;20820;-53
2021/10/17 00:24:12;;;;;;;22.67;13.97;;;7.70;99.90;;;;;;5074036;28;20456;-54
2021/10/17 00:26:39;;;;;;;21.13;14.10;;;7.70;99.90;;;;;;5067151;28;20895;-54
2021/10/17 00:29:08;;;;;;;22.33;13.90;;;7.80;99.90;;;;;;5071348;28;20463;-53
2021/10/17 00:31:35;;;;;;;25.17;14.50;;;7.70;99.90;;;;;;5071477;28;20478;-53
2021/10/17 00:34:02;;;;;;;25.83;15.00;;;7.70;99.90;;;;;;5072113;28;20881;-54
2021/10/17 00:36:30;;;;;;;23.53;14.40;;;7.70;99.90;;;;;;5072160;28;20481;-54
2021/10/17 00:38:57;;;;;;;27.40;15.77;;;7.70;99.90;;;;;;5067795;28;20454;-53
2021/10/17 00:41:24;;;;;;;21.17;13.30;;;7.70;99.90;;;;;;5073512;28;20445;-54
2021/10/17 00:43:52;;;;;;;21.10;12.87;;;7.80;99.90;;;;;;5074182;28;20503;-52
2021/10/17 00:46:22;;;;;;;22.83;14.23;;;7.70;99.90;;;;;;5073849;28;20486;-52
2021/10/17 00:48:49;;;;;;;22.70;14.87;;;7.70;99.90;;;;;;5074517;28;21010;-53
2021/10/17 00:51:17;;;;;;;27.20;15.77;;;7.70;99.90;;;;;;5073859;28;20973;-53
2021/10/17 00:53:44;;;;;;;21.47;14.23;;;7.70;99.90;;;;;;5073994;28;20934;-53
2021/10/17 00:56:12;;;;;;;22.40;14.60;;;7.70;99.90;;;;;;5073846;28;20987;-54
2021/10/17 00:58:39;;;;;;;22.50;14.30;;;7.80;99.90;;;;;;5074210;28;20447;-54
2021/10/17 01:01:06;;;;;;;23.73;15.00;;;7.70;99.90;;;;;;5072561;28;21067;-54
2021/10/17 01:03:34;;;;;;;25.00;15.10;;;7.70;99.90;;;;;;5072369;28;20451;-54
2021/10/17 01:06:04;;;;;;;23.37;14.77;;;7.60;99.90;;;;;;5073184;28;20548;-54
2021/10/17 01:08:31;;;;;;;23.27;14.70;;;7.60;99.90;;;;;;5073978;28;20457;-53
2021/10/17 01:10:58;;;;;;;23.50;14.87;;;7.50;99.90;;;;;;5074036;28;20508;-53
2021/10/17 01:13:25;;;;;;;21.43;14.30;;;7.30;99.90;;;;;;5073873;28;20456;-54
2021/10/17 01:15:54;;;;;;;21.20;13.83;;;7.30;99.90;;;;;;5101752;22;20580;-59
2021/10/17 01:18:22;;;;;;;20.60;13.23;;;7.30;99.90;;;;;;5093869;28;20849;-59
2021/10/17 01:20:51;;;;;;;18.23;13.30;;;7.30;99.90;;;;;;5097674;28;20461;-58
2021/10/17 01:23:20;;;;;;;19.57;13.80;;;7.20;99.90;;;;;;5114811;28;20455;-59
2021/10/17 01:25:47;;;;;;;17.00;11.87;;;7.10;99.90;;;;;;5112672;28;20466;-59
2021/10/17 01:28:14;;;;;;;17.57;12.07;;;7.10;99.90;;;;;;5102852;28;20498;-59
2021/10/17 01:30:42;;;;;;;16.73;11.97;;;7.10;99.90;;;;;;5100583;28;20450;-59
2021/10/17 01:33:09;;;;;;;16.80;11.50;;;7.10;99.90;;;;;;5099720;28;20452;-60
2021/10/17 01:35:37;;;;;;;19.37;12.50;;;6.90;99.90;;;;;;5111632;28;20477;-59
2021/10/17 01:38:06;;;;;;;21.43;13.00;;;6.80;99.90;;;;;;5110758;28;20449;-59
2021/10/17 01:40:34;;;;;;;19.03;12.20;;;6.70;99.90;;;;;;5103555;28;20515;-59
2021/10/17 01:43:01;;;;;;;20.43;13.00;;;6.80;99.90;;;;;;5094068;28;20449;-59
2021/10/17 01:45:28;;;;;;;18.60;12.90;;;6.80;99.90;;;;;;5103116;28;20444;-59
2021/10/17 01:47:57;;;;;;;21.10;13.07;;;6.80;99.90;;;;;;5094129;28;20578;-60
2021/10/17 01:50:24;;;;;;;16.60;12.00;;;6.70;99.90;;;;;;5095032;28;20449;-60
2021/10/17 01:52:51;;;;;;;23.23;11.93;;;6.70;99.90;;;;;;5094448;28;20506;-60
2021/10/17 01:55:19;;;;;;;21.03;13.30;;;6.80;99.90;;;;;;5095986;28;20507;-60
2021/10/17 01:57:46;;;;;;;21.40;13.20;;;6.60;99.90;;;;;;5094133;28;20446;-59
2021/10/17 02:00:15;;;;;;;22.90;13.53;;;6.70;99.90;;;;;;5113025;28;20494;-60
2021/10/17 02:02:41;;;;;;;22.33;13.50;;;6.70;99.90;;;;;;5095065;28;20500;-60
2021/10/17 02:05:09;;;;;;;23.40;13.80;;;6.70;99.90;;;;;;5107402;28;20449;-59
2021/10/17 02:07:36;;;;;;;20.60;13.80;;;6.50;99.90;;;;;;5092587;28;20478;-60
2021/10/17 02:10:04;;;;;;;20.90;14.03;;;6.50;99.90;;;;;;5093888;28;20447;-60
2021/10/17 02:12:33;;;;;;;19.97;12.80;;;6.60;99.90;;;;;;5093943;28;20496;-59
2021/10/17 02:15:04;;;;;;;20.40;12.97;;;6.60;99.90;;;;;;5110812;28;20449;-60
2021/10/17 02:17:31;;;;;;;20.87;13.70;;;6.60;99.90;;;;;;5110779;28;20477;-60
2021/10/17 02:19:58;;;;;;;21.63;14.27;;;6.40;99.90;;;;;;5111798;28;20446;-60
2021/10/17 02:22:25;;;;;;;20.67;13.90;;;6.10;99.90;;;;;;5103633;28;20461;-59
2021/10/17 02:24:52;;;;;;;20.60;13.53;;;6.30;99.90;;;;;;5093706;28;20506;-59
2021/10/17 02:27:19;;;;;;;23.63;13.70;;;6.30;99.90;;;;;;5093273;28;20490;-59
2021/10/17 02:29:48;;;;;;;18.10;11.80;;;6.30;99.90;;;;;;5092952;28;20495;-59
2021/10/17 02:32:15;;;;;;;20.57;13.30;;;6.40;99.90;;;;;;5092642;28;20951;-59
2021/10/17 02:34:42;;;;;;;19.40;13.17;;;6.40;99.90;;;;;;5099764;28;20445;-59
2021/10/17 02:37:09;;;;;;;20.10;12.50;;;6.40;99.90;;;;;;5113209;28;20464;-59
2021/10/17 02:39:36;;;;;;;21.17;13.77;;;6.40;99.90;;;;;;5094221;28;20886;-59
2021/10/17 02:42:03;;;;;;;20.27;12.97;;;6.40;99.90;;;;;;5093425;28;21000;-59
2021/10/17 02:44:30;;;;;;;19.03;12.80;;;6.40;99.90;;;;;;5096415;28;20457;-59
2021/10/17 02:46:58;;;;;;;17.40;11.80;;;6.40;99.90;;;;;;5097901;28;20479;-59
2021/10/17 02:49:25;;;;;;;19.23;13.00;;;6.50;99.90;;;;;;5098675;28;20516;-59
2021/10/17 02:51:53;;;;;;;19.73;13.90;;;6.50;99.90;;;;;;5072154;28;20541;-59
2021/10/17 02:54:20;;;;;;;20.33;13.00;;;6.40;99.90;;;;;;5078052;28;20510;-59
2021/10/17 02:56:49;;;;;;;17.90;12.43;;;6.50;99.90;;;;;;5092407;28;20531;-59
2021/10/17 02:59:15;;;;;;;19.13;12.50;;;6.50;99.90;;;;;;5093147;28;20507;-59
2021/10/17 03:01:42;;;;;;;20.40;13.07;;;6.40;99.90;;;;;;5092009;28;20527;-59
2021/10/17 03:04:11;;;;;;;17.83;11.90;;;6.30;99.90;;;;;;5094385;28;20875;-58
2021/10/17 03:06:38;;;;;;;22.17;13.63;;;6.20;99.90;;;;;;5112602;28;20601;-59
2021/10/17 03:09:05;;;;;;;20.20;12.97;;;6.00;99.90;;;;;;5102458;28;20445;-59
2021/10/17 03:11:33;;;;;;;19.57;12.43;;;6.10;99.90;;;;;;5093156;28;20442;-59
2021/10/17 03:14:01;;;;;;;22.37;13.43;;;6.10;99.90;;;;;;5100994;28;20453;-58
2021/10/17 03:16:28;;;;;;;21.23;12.97;;;6.00;99.90;;;;;;5112276;28;20476;-59
2021/10/17 03:18:55;;;;;;;25.60;14.13;;;6.10;99.90;;;;;;5098601;28;21027;-59
2021/10/17 03:21:23;;;;;;;21.07;13.73;;;6.00;99.90;;;;;;5091674;28;20447;-59
2021/10/17 03:23:50;;;;;;;21.70;13.40;;;6.00;99.90;;;;;;5107408;28;21102;-59
2021/10/17 03:26:17;;;;;;;20.73;12.80;;;6.10;99.90;;;;;;5111820;28;20886;-58
2021/10/17 03:28:45;;;;;;;21.30;13.67;;;6.00;99.90;;;;;;5092354;28;20856;-59
2021/10/17 03:31:12;;;;;;;21.80;13.60;;;6.00;99.90;;;;;;5091845;28;20454;-58
2021/10/17 03:33:39;;;;;;;20.43;13.17;;;6.00;99.90;;;;;;5095918;28;20898;-59
2021/10/17 03:36:06;;;;;;;21.43;13.83;;;6.10;99.90;;;;;;5091749;28;20491;-58
2021/10/17 03:38:34;;;;;;;20.13;13.23;;;6.00;99.90;;;;;;5091492;28;20446;-59
2021/10/17 03:41:01;;;;;;;24.60;14.10;;;6.00;99.90;;;;;;5091961;28;20891;-59
2021/10/17 03:43:28;;;;;;;20.37;13.57;;;6.00;99.90;;;;;;5092977;28;20450;-59
2021/10/17 03:45:55;;;;;;;20.53;13.73;;;6.00;99.90;;;;;;5091859;28;20467;-58
2021/10/17 03:48:22;;;;;;;19.30;12.70;;;6.00;99.90;;;;;;5091416;28;20485;-59
2021/10/17 03:50:49;;;;;;;21.13;13.40;;;6.00;99.90;;;;;;5100052;28;20461;-59
2021/10/17 03:53:16;;;;;;;20.50;13.80;;;6.00;99.90;;;;;;5112031;28;20547;-59
2021/10/17 03:55:44;;;;;;;23.27;14.33;;;5.90;99.90;;;;;;5110166;28;20469;-58
2021/10/17 03:58:11;;;;;;;19.30;12.83;;;5.90;99.90;;;;;;5110708;28;20449;-58
2021/10/17 04:00:38;;;;;;;18.80;12.63;;;5.90;99.90;;;;;;5098031;28;20506;-59
2021/10/17 04:03:05;;;;;;;21.27;12.20;;;5.90;99.90;;;;;;5112004;28;20457;-59
2021/10/17 04:05:32;;;;;;;20.30;12.70;;;5.80;99.90;;;;;;5111859;28;20526;-59
2021/10/17 04:07:59;;;;;;;18.40;12.10;;;5.90;99.90;;;;;;5105748;28;20474;-58
2021/10/17 04:10:26;;;;;;;19.10;12.90;;;5.90;99.90;;;;;;5092687;28;20449;-59
2021/10/17 04:12:55;;;;;;;19.50;12.37;;;5.80;99.90;;;;;;5091226;28;20450;-58
2021/10/17 04:15:22;;;;;;;23.90;14.27;;;5.90;99.90;;;;;;5091521;28;20449;-59
2021/10/17 04:17:49;;;;;;;21.27;12.67;;;5.90;99.90;;;;;;5099456;28;20442;-59
2021/10/17 04:20:16;;;;;;;19.07;12.40;;;5.90;99.90;;;;;;5092457;28;20897;-58
2021/10/17 04:22:43;;;;;;;20.60;12.63;;;5.90;99.90;;;;;;5111700;28;20441;-59
2021/10/17 04:25:11;;;;;;;17.30;11.90;;;5.90;99.90;;;;;;5111711;28;20947;-58
2021/10/17 04:27:38;;;;;;;18.80;11.70;;;5.90;99.90;;;;;;5111589;28;20902;-59
2021/10/17 04:30:08;;;;;;;19.77;11.60;;;5.80;99.90;;;;;;5106370;28;20449;-59
2021/10/17 04:32:34;;;;;;;18.97;11.10;;;5.70;99.90;;;;;;5111650;28;20449;-59
2021/10/17 04:35:01;;;;;;;19.57;12.00;;;5.70;99.90;;;;;;5108301;28;20499;-59
2021/10/17 04:37:29;;;;;;;19.93;12.60;;;5.60;99.90;;;;;;5095525;28;20466;-59
2021/10/17 04:39:56;;;;;;;20.57;12.20;;;5.60;99.90;;;;;;5094973;28;20455;-58
2021/10/17 04:42:24;;;;;;;20.80;12.27;;;5.50;99.90;;;;;;5099090;28;20449;-59
2021/10/17 04:44:51;;;;;;;22.30;12.40;;;5.50;99.90;;;;;;5108027;28;20498;-59
2021/10/17 04:47:19;;;;;;;20.00;12.00;;;5.50;99.90;;;;;;5097728;28;20894;-58
2021/10/17 04:49:46;;;;;;;21.37;12.80;;;5.40;99.90;;;;;;5094857;28;20449;-59
2021/10/17 04:52:13;;;;;;;23.27;13.60;;;5.40;99.90;;;;;;5113271;28;20513;-59
2021/10/17 04:54:40;;;;;;;19.83;12.03;;;5.30;99.90;;;;;;5115051;28;20883;-59
2021/10/17 04:57:07;;;;;;;22.30;11.97;;;5.30;99.90;;;;;;5113254;28;20589;-58
2021/10/17 04:59:35;;;;;;;23.77;12.43;;;5.30;99.90;;;;;;5112672;28;20445;-59
2021/10/17 05:02:02;;;;;;;20.40;13.00;;;5.30;99.90;;;;;;5094331;28;21044;-59
2021/10/17 05:04:31;;;;;;;21.27;12.70;;;5.30;99.90;;;;;;5094495;28;20541;-58
2021/10/17 05:06:58;;;;;;;18.50;11.53;;;5.30;99.90;;;;;;5093664;28;20473;-58
2021/10/17 05:09:25;;;;;;;22.43;12.47;;;5.30;99.90;;;;;;5099835;28;20530;-59
2021/10/17 05:11:51;;;;;;;22.47;13.17;;;5.30;99.90;;;;;;5098637;28;20870;-59
2021/10/17 05:14:19;;;;;;;22.70;12.30;;;5.30;99.90;;;;;;5106092;28;20442;-58
2021/10/17 05:16:45;;;;;;;20.87;11.30;;;5.30;99.90;;;;;;5094776;28;21056;-59
2021/10/17 05:19:12;;;;;;;23.80;11.20;;;5.20;99.90;;;;;;5097053;28;20527;-58
2021/10/17 05:21:41;;;;;;;22.73;11.47;;;5.10;99.90;;;;;;5100871;28;20450;-59
2021/10/17 05:24:08;;;;;;;17.53;11.60;;;5.10;99.90;;;;;;5095373;28;20503;-58
2021/10/17 05:26:35;;;;;;;22.40;13.13;;;5.00;99.90;;;;;;5093981;28;20470;-58
2021/10/17 05:29:02;;;;;;;21.95;14.13;;;5.00;99.90;;;;;;5091294;28;20488;-58
2021/10/17 05:31:30;;;;;;;18.73;12.80;;;5.00;99.90;;;;;;5089520;28;20198;-58
2021/10/17 05:33:57;;;;;;;19.20;12.20;;;4.90;99.90;;;;;;5093702;28;20454;-60
2021/10/17 05:36:24;;;;;;;21.60;11.80;;;4.90;99.90;;;;;;5093722;28;20615;-59
2021/10/17 05:38:53;;;;;;;17.30;11.90;;;4.90;99.90;;;;;;5092600;28;20515;-59
2021/10/17 05:41:22;;;;;;;19.03;11.50;;;4.90;99.90;;;;;;5093177;28;20491;-59
2021/10/17 05:43:49;;;;;;;17.90;11.30;;;4.90;99.90;;;;;;5095153;28;20548;-58
2021/10/17 05:46:16;;;;;;;14.63;10.20;;;4.90;99.90;;;;;;5091502;28;20990;-58
2021/10/17 05:48:43;;;;;;;18.67;11.87;;;5.00;99.90;;;;;;5094628;28;20478;-59
2021/10/17 05:51:14;;;;;;;17.33;10.40;;;4.90;99.90;;;;;;5095449;28;20449;-59
2021/10/17 05:53:41;;;;;;;15.10;9.30;;;4.90;99.90;;;;;;5109341;28;20447;-59
2021/10/17 05:56:09;;;;;;;13.80;9.37;;;4.90;99.90;;;;;;5102130;28;20465;-58
2021/10/17 05:58:36;;;;;;;13.70;8.37;;;4.90;99.90;;;;;;5109553;28;20947;-58
2021/10/17 06:01:03;;;;;;;15.03;9.50;;;4.90;99.90;;;;;;5111965;28;20934;-58
2021/10/17 06:03:31;;;;;;;13.47;9.13;;;4.90;99.90;;;;;;5110458;28;20942;-58
2021/10/17 06:06:01;;;;;;;12.63;8.90;;;5.00;99.90;;;;;;5093780;28;20518;-58
2021/10/17 06:08:30;;;;;;;12.03;9.03;;;5.10;99.90;;;;;;5093366;28;20477;-58
2021/10/17 06:10:57;;;;;;;11.93;8.80;;;5.20;99.90;;;;;;5093113;28;20540;-58
2021/10/17 06:13:26;;;;;;;12.27;9.30;;;5.00;99.90;;;;;;5092810;28;20985;-58
2021/10/17 06:15:53;;;;;;;11.90;8.60;;;5.00;99.90;;;;;;5093180;28;20535;-58
2021/10/17 06:18:20;;;;;;;11.87;7.13;;;5.20;99.90;;;;;;5094432;28;20498;-58
2021/10/17 06:20:47;;;;;;;12.77;9.17;;;5.30;99.90;;;;;;5092854;28;20443;-58
2021/10/17 06:23:14;;;;;;;14.77;9.40;;;5.30;99.90;;;;;;5093058;28;20454;-57
2021/10/17 06:25:41;;;;;;;27.97;15.07;;;5.50;99.90;;;;;;5093638;28;20470;-58
2021/10/17 06:28:08;;;;;;;26.57;13.70;;;5.50;99.90;;;;;;5094605;28;20479;-58
2021/10/17 06:30:36;;;;;;;21.83;13.00;;;5.50;99.90;;;;;;5104524;28;20449;-58
2021/10/17 06:33:03;;;;;;;19.27;13.00;;;5.60;99.90;;;;;;5098922;28;20451;-58
2021/10/17 06:35:30;;;;;;;22.33;11.87;;;5.70;99.90;;;;;;5092488;28;20450;-58
2021/10/17 06:37:58;;;;;;;14.47;10.30;;;5.80;99.90;;;;;;5093848;28;20491;-58
2021/10/17 06:40:25;;;;;;;16.80;9.80;;;6.00;99.90;;;;;;5102142;28;20507;-58
2021/10/17 06:42:52;;;;;;;15.80;10.03;;;6.10;99.90;;;;;;5112900;28;20448;-58
2021/10/17 06:45:19;;;;;;;15.67;10.40;;;6.10;99.90;;;;;;5092480;28;20457;-58
2021/10/17 06:47:47;;;;;;;12.53;8.80;;;6.20;99.90;;;;;;5091975;28;20483;-58
2021/10/17 06:50:17;;;;;;;13.30;8.87;;;6.20;99.90;;;;;;5092285;28;20451;-58
2021/10/17 06:52:44;;;;;;;13.90;8.17;;;6.40;99.90;;;;;;5093283;28;20975;-58
2021/10/17 06:55:11;;;;;;;13.43;8.73;;;6.50;99.90;;;;;;5092020;28;20499;-58
2021/10/17 06:57:38;;;;;;;13.10;8.00;;;6.70;99.90;;;;;;5103818;28;20453;-58
2021/10/17 07:00:07;;;;;;;13.13;8.07;;;6.80;99.90;;;;;;5096952;28;20503;-58
2021/10/17 07:02:33;;;;;;;15.37;8.87;;;6.90;99.90;;;;;;5092051;28;20442;-58
2021/10/17 07:05:02;;;;;;;12.60;9.10;;;6.90;99.90;;;;;;5091901;28;20454;-58
2021/10/17 07:07:29;;;;;;;15.13;8.17;;;7.00;99.90;;;;;;5091832;28;20469;-58
2021/10/17 07:09:56;;;;;;;12.40;7.67;;;7.00;99.90;;;;;;5093272;28;20507;-58
2021/10/17 07:12:23;;;;;;;12.40;8.30;;;7.20;99.90;;;;;;5109707;28;20449;-58
2021/10/17 07:14:52;;;;;;;13.00;7.57;;;7.30;99.90;;;;;;5100097;28;20450;-58
2021/10/17 07:17:19;;;;;;;12.97;8.43;;;7.20;99.90;;;;;;5091082;28;20505;-58
2021/10/17 07:19:46;;;;;;;10.37;7.70;;;7.30;99.90;;;;;;5102529;28;20437;-58
2021/10/17 07:22:14;;;;;;;12.53;7.40;;;7.30;99.90;;;;;;5097343;28;20450;-59
2021/10/17 07:24:41;;;;;;;14.37;7.50;;;7.40;99.90;;;;;;5091620;28;20889;-58
2021/10/17 07:27:08;;;;;;;9.80;6.83;;;7.60;99.90;;;;;;5091282;28;20879;-58
2021/10/17 07:29:35;;;;;;;11.30;7.90;;;7.70;99.90;;;;;;5091859;28;20845;-58
2021/10/17 07:32:02;;;;;;;11.93;8.30;;;8.00;99.90;;;;;;5091794;28;20458;-58
2021/10/17 07:34:29;;;;;;;12.40;7.90;;;8.10;99.90;;;;;;5091563;28;20455;-58
2021/10/17 07:36:56;;;;;;;8.83;6.37;;;8.30;99.90;;;;;;5091636;28;20470;-58
2021/10/17 07:39:24;;;;;;;8.80;6.60;;;8.50;99.90;;;;;;5091927;28;20453;-58
2021/10/17 07:41:52;;;;;;;11.50;7.67;;;8.80;99.90;;;;;;5091456;28;20503;-58
2021/10/17 07:44:19;;;;;;;9.20;6.87;;;8.90;99.90;;;;;;5091259;28;20446;-57
2021/10/17 07:46:48;;;;;;;7.70;5.80;;;9.00;99.90;;;;;;5089217;28;20529;-58
2021/10/17 07:49:15;;;;;;;11.23;6.57;;;9.10;99.90;;;;;;5091681;28;20534;-59
2021/10/17 07:51:42;;;;;;;8.50;5.37;;;9.10;99.90;;;;;;5091554;28;20946;-59
2021/10/17 07:54:10;;;;;;;7.63;5.00;;;9.30;99.90;;;;;;5091841;28;20481;-59
2021/10/17 07:56:39;;;;;;;6.87;4.90;;;9.30;99.90;;;;;;5090790;28;20477;-59
2021/10/17 07:59:06;;;;;;;6.27;4.70;;;9.40;99.90;;;;;;5091919;28;20491;-59
2021/10/17 08:01:33;;;;;;;6.17;4.90;;;9.50;99.90;;;;;;5091754;28;20825;-59
2021/10/17 08:04:00;;;;;;;5.43;4.40;;;9.50;99.90;;;;;;5091598;28;20869;-59
2021/10/17 08:06:27;;;;;;;6.70;4.70;;;9.60;99.90;;;;;;5091259;28;20462;-59
2021/10/17 08:08:54;;;;;;;6.43;4.83;;;9.70;99.90;;;;;;5092412;28;20481;-59
2021/10/17 08:11:21;;;;;;;7.00;4.80;;;9.80;99.90;;;;;;5095429;28;20445;-59
2021/10/17 08:13:49;;;;;;;4.80;4.10;;;9.90;99.90;;;;;;5095611;28;20454;-58
2021/10/17 08:16:16;;;;;;;5.43;4.43;;;10.00;99.90;;;;;;5095013;28;20481;-59
2021/10/17 08:18:43;;;;;;;6.77;5.17;;;10.00;99.90;;;;;;5096484;28;20446;-59
2021/10/17 08:21:10;;;;;;;5.93;4.50;;;10.10;99.90;;;;;;5100514;28;20472;-60
2021/10/17 08:23:37;;;;;;;8.17;5.00;;;10.10;99.90;;;;;;5095403;28;20519;-59
2021/10/17 08:26:04;;;;;;;6.33;4.53;;;10.20;99.90;;;;;;5095092;28;20470;-60
2021/10/17 08:28:31;;;;;;;5.70;4.33;;;10.30;99.90;;;;;;5095237;28;20481;-59
2021/10/17 08:31:00;;;;;;;5.40;4.63;;;10.40;99.90;;;;;;5107200;28;20966;-59
2021/10/17 08:33:27;;;;;;;6.00;4.40;;;10.70;99.90;;;;;;5086480;28;20978;-59
2021/10/17 08:35:55;;;;;;;6.63;4.43;;;10.90;99.90;;;;;;5094683;28;20465;-60
2021/10/17 08:38:22;;;;;;;6.83;4.97;;;11.10;99.90;;;;;;5095194;28;20437;-58
2021/10/17 08:40:50;;;;;;;5.30;4.13;;;11.70;99.90;;;;;;5094879;28;20496;-60
2021/10/17 08:43:18;;;;;;;4.43;3.90;;;12.30;99.90;;;;;;5095040;28;20518;-59
2021/10/17 08:45:45;;;;;;;4.37;3.63;;;13.10;99.90;;;;;;5094384;28;20525;-59
2021/10/17 08:48:14;;;;;;;3.70;3.33;;;13.70;99.90;;;;;;5095041;28;20445;-60
2021/10/17 08:50:43;;;;;;;3.80;3.40;;;14.60;99.90;;;;;;5094825;28;20490;-60
2021/10/17 08:53:10;;;;;;;6.60;3.50;;;15.00;99.90;;;;;;5094906;28;20503;-59
2021/10/17 08:55:37;;;;;;;4.53;3.40;;;15.30;99.90;;;;;;5094513;28;20473;-60
2021/10/17 08:58:04;;;;;;;3.50;3.20;;;15.50;99.90;;;;;;5094634;28;20458;-60
2021/10/17 09:00:32;;;;;;;5.97;4.03;;;15.60;99.90;;;;;;5094351;28;20506;-60
2021/10/17 09:03:00;;;;;;;4.33;3.93;;;15.40;99.90;;;;;;5094550;28;20460;-59
2021/10/17 09:05:39;;;;;;;4.30;3.90;;;15.70;99.90;;;;;;5094166;28;20534;-60
2021/10/17 09:08:07;;;;;;;4.60;3.83;;;16.20;99.90;;;;;;5094426;28;20928;-60
2021/10/17 09:10:34;;;;;;;3.90;3.50;;;16.20;99.90;;;;;;5094128;28;20480;-60
2021/10/17 09:13:10;;;;;;;4.80;4.10;;;16.50;99.90;;;;;;5094374;28;20492;-60
2021/10/17 09:15:37;;;;;;;4.37;3.53;;;17.00;99.90;;;;;;5093796;28;20522;-60
2021/10/17 09:18:09;;;;;;;3.63;3.20;;;16.80;99.90;;;;;;5095539;28;20507;-60
2021/10/17 09:20:51;;;;;;;4.63;3.60;;;16.10;99.90;;;;;;5101827;28;20445;-60
2021/10/17 09:23:35;;;;;;;4.60;4.00;;;16.00;99.90;;;;;;5107321;28;20454;-60
2021/10/17 09:26:09;;;;;;;4.10;3.70;;;16.30;99.90;;;;;;5097843;27;20983;-60
2021/10/17 09:28:37;;;;;;;10.60;7.77;;;16.40;99.90;;;;;;5077356;28;20482;-59
2021/10/17 09:31:06;;;;;;;14.00;8.77;;;16.20;99.90;;;;;;5101398;28;20467;-60
2021/10/17 09:33:33;;;;;;;25.20;14.77;;;15.80;99.90;;;;;;5109705;28;20441;-59
2021/10/17 09:36:19;;;;;;;25.70;16.17;;;15.80;99.90;;;;;;5098639;28;20469;-59
2021/10/17 09:38:48;;;;;;;33.97;19.60;;;14.90;99.90;;;;;;5091209;28;20814;-59
2021/10/17 09:41:19;;;;;;;26.43;15.50;;;13.80;99.90;;;;;;5093269;28;20454;-59
2021/10/17 09:43:55;;;;;;;29.87;16.73;;;13.60;99.90;;;;;;5112350;28;20506;-59
2021/10/17 09:46:22;;;;;;;31.27;17.10;;;13.50;99.90;;;;;;5100249;28;20465;-59
2021/10/17 09:48:50;;;;;;;28.83;16.77;;;13.70;99.90;;;;;;5107419;28;20482;-60
2021/10/17 09:51:23;;;;;;;36.00;20.10;;;13.80;99.90;;;;;;5092968;28;20499;-60
2021/10/17 09:53:52;;;;;;;34.33;19.33;;;13.80;99.90;;;;;;5106948;28;20453;-59
2021/10/17 09:56:34;;;;;;;37.93;20.30;;;13.10;99.90;;;;;;5102840;28;20462;-60
2021/10/17 09:59:02;;;;;;;34.30;19.37;;;13.20;99.90;;;;;;5093511;28;20442;-59
2021/10/17 10:01:30;;;;;;;34.93;19.37;;;13.40;99.90;;;;;;5093357;28;20523;-59
2021/10/17 10:03:58;;;;;;;39.53;19.73;;;13.10;99.90;;;;;;5092907;28;20450;-59
2021/10/17 10:06:28;;;;;;;37.60;20.67;;;12.80;99.90;;;;;;5091085;28;20469;-59
2021/10/17 10:08:57;;;;;;;39.70;20.40;;;12.50;99.90;;;;;;5111173;28;20477;-59
2021/10/17 10:11:27;;;;;;;32.87;19.23;;;12.60;99.90;;;;;;5072982;28;20473;-60
2021/10/17 10:13:56;;;;;;;35.00;19.50;;;12.40;99.90;;;;;;5088369;28;20457;-59
2021/10/17 10:16:25;;;;;;;38.93;19.07;;;12.40;99.90;;;;;;5093007;28;20535;-60
2021/10/17 10:18:54;;;;;;;38.13;19.67;;;12.50;99.90;;;;;;5094002;28;20450;-59
2021/10/17 10:21:23;;;;;;;34.60;19.43;;;12.50;99.90;;;;;;5093880;28;20504;-61
2021/10/17 10:23:54;;;;;;;28.50;17.83;;;12.80;99.90;;;;;;5086834;28;20841;-59
2021/10/17 10:26:23;;;;;;;30.50;17.40;;;13.80;99.90;;;;;;5092798;28;20897;-60
2021/10/17 10:28:52;;;;;;;30.17;17.30;;;14.20;99.90;;;;;;5091670;28;20486;-59
2021/10/17 10:31:45;;;;;;;33.60;16.63;;;13.70;99.90;;;;;;5092554;28;20450;-60
2021/10/17 10:34:14;;;;;;;33.57;18.17;;;13.10;99.90;;;;;;5092544;28;20454;-60
2021/10/17 10:36:42;;;;;;;33.23;18.33;;;13.20;99.90;;;;;;5092441;28;20843;-60
2021/10/17 10:39:14;;;;;;;33.27;17.20;;;13.60;99.90;;;;;;5092511;28;20454;-59
2021/10/17 10:41:53;;;;;;;35.27;18.23;;;13.40;99.90;;;;;;5092265;28;20889;-59
2021/10/17 10:44:21;;;;;;;32.17;18.40;;;13.40;99.90;;;;;;5092115;28;20795;-59
2021/10/17 10:46:51;;;;;;;32.37;17.77;;;13.50;99.90;;;;;;5092229;28;20462;-59
2021/10/17 10:49:40;;;;;;;35.03;17.93;;;13.20;99.90;;;;;;5091552;28;20539;-60
2021/10/17 10:52:09;;;;;;;32.03;18.50;;;12.90;99.90;;;;;;5076592;28;20443;-60
2021/10/17 10:54:38;;;;;;;36.17;19.90;;;12.70;99.90;;;;;;5090420;28;20445;-59
2021/10/17 10:57:20;;;;;;;31.33;18.27;;;12.80;99.90;;;;;;5091808;28;21156;-60
2021/10/17 11:00:02;;;;;;;33.50;17.57;;;13.20;99.90;;;;;;5092151;28;20831;-59
2021/10/17 11:02:29;;;;;;;30.20;18.30;;;13.60;99.90;;;;;;5091983;28;20442;-60
2021/10/17 11:04:58;;;;;;;39.07;20.53;;;13.20;99.90;;;;;;5091418;28;20491;-59
2021/10/17 11:07:31;;;;;;;32.90;18.53;;;12.80;99.90;;;;;;5091959;28;20461;-59
2021/10/17 11:10:49;;;;;;;38.07;18.67;;;12.10;99.90;;;;;;5092128;28;20485;-59
2021/10/17 11:13:28;;;;;;;34.70;18.93;;;12.40;99.90;;;;;;5091759;28;20449;-59
2021/10/17 11:15:55;;;;;;;36.57;18.23;;;12.30;99.90;;;;;;5091353;28;20473;-60
2021/10/17 11:18:31;;;;;;;36.57;18.63;;;12.70;99.90;;;;;;5091749;28;20446;-58
2021/10/17 11:20:59;;;;;;;40.73;23.00;;;12.40;99.90;;;;;;5091710;28;20901;-59
2021/10/17 11:23:27;;;;;;;35.47;19.50;;;12.20;99.90;;;;;;5091875;28;20445;-59
2021/10/17 11:25:57;;;;;;;33.90;20.33;;;12.20;99.90;;;;;;5091520;28;20890;-59
2021/10/17 11:28:26;;;;;;;36.50;18.93;;;12.30;99.90;;;;;;5092131;28;20874;-59
2021/10/17 11:31:02;;;;;;;40.17;19.83;;;12.30;99.90;;;;;;5091224;28;20485;-59
2021/10/17 11:33:30;;;;;;;39.33;20.27;;;12.40;99.90;;;;;;5091836;28;20445;-59
2021/10/17 11:35:57;;;;;;;41.67;19.50;;;12.40;99.90;;;;;;5097070;28;20476;-59
2021/10/17 11:38:25;;;;;;;39.87;21.57;;;12.40;99.90;;;;;;5108650;28;20461;-59
2021/10/17 11:41:02;;;;;;;34.83;19.10;;;12.40;99.90;;;;;;5091360;28;20487;-59
2021/10/17 11:43:37;;;;;;;38.97;20.03;;;12.20;99.90;;;;;;5091208;28;20454;-58
2021/10/17 11:46:06;;;;;;;37.23;20.50;;;12.00;99.90;;;;;;5091259;28;20473;-59
2021/10/17 11:48:34;;;;;;;42.57;21.77;;;12.00;99.90;;;;;;5089411;28;20446;-58
2021/10/17 11:51:06;;;;;;;37.80;21.40;;;12.10;99.90;;;;;;5091019;28;21042;-58
2021/10/17 11:53:34;;;;;;;42.97;22.10;;;12.20;99.90;;;;;;5091212;28;20961;-58
2021/10/17 11:56:05;;;;;;;46.83;22.90;;;11.80;99.90;;;;;;5091267;28;20466;-58
2021/10/17 11:58:32;;;;;;;41.60;20.53;;;11.70;99.90;;;;;;5091519;28;21032;-59
2021/10/17 12:01:07;;;;;;;37.63;20.20;;;11.90;99.90;;;;;;5090950;28;20499;-59
2021/10/17 12:03:34;;;;;;;39.80;19.90;;;11.90;99.90;;;;;;5091296;28;20503;-59
2021/10/17 12:06:02;;;;;;;41.90;22.20;;;12.10;99.90;;;;;;5090642;28;20986;-59
2021/10/17 12:08:31;;;;;;;40.37;20.63;;;12.50;99.90;;;;;;5091444;28;20441;-59
2021/10/17 12:11:01;;;;;;;44.00;22.10;;;12.60;99.90;;;;;;5090725;28;20620;-59
2021/10/17 12:13:38;;;;;;;44.97;22.70;;;12.60;99.90;;;;;;5090982;28;20855;-59
2021/10/17 12:16:07;;;;;;;35.70;18.90;;;13.00;99.90;;;;;;5091164;28;20899;-59
2021/10/17 12:18:35;;;;;;;34.13;18.50;;;12.50;99.90;;;;;;5089739;28;20438;-58
2021/10/17 12:21:02;;;;;;;37.50;20.17;;;12.50;99.90;;;;;;5090731;28;20453;-59
2021/10/17 12:23:30;;;;;;;35.77;18.83;;;12.40;99.90;;;;;;5090763;28;20495;-59
2021/10/17 12:25:57;;;;;;;38.13;19.80;;;12.00;99.90;;;;;;5090173;28;20557;-59
2021/10/17 12:28:24;;;;;;;47.33;19.57;;;12.30;99.90;;;;;;5090045;28;20454;-59
2021/10/17 12:30:55;;;;;;;36.73;18.30;;;12.70;99.90;;;;;;5089328;28;20478;-59
2021/10/17 12:33:30;;;;;;;37.13;19.43;;;13.00;99.90;;;;;;5089645;28;20453;-59
2021/10/17 12:35:59;;;;;;;31.97;17.67;;;12.90;99.90;;;;;;5091258;28;20473;-59
2021/10/17 12:38:32;;;;;;;34.37;18.30;;;13.20;99.90;;;;;;5090760;28;20453;-58
2021/10/17 12:41:01;;;;;;;36.40;19.37;;;13.40;99.90;;;;;;5090739;28;20458;-59
2021/10/17 12:43:30;;;;;;;35.37;19.70;;;13.40;99.90;;;;;;5090375;28;20515;-59
2021/10/17 12:46:11;;;;;;;33.20;18.00;;;12.90;99.90;;;;;;5091221;28;20510;-59